Time;durP1;ratioP1;P1;durP2;ratioP2;P2;SDS_P1;SDS_P2;PMS_P1;PMS_P2;Temp;Humidity;BMP_temperature;BMP_pressure;BME280_temperature;BME280_humidity;BME280_pressure;Samples;Min_cycle;Max_cycle;Signal;HPM_P1;HPM_P2
2021/03/13 00:01:17;;;;;;;10.38;9.00;;;;;;;3.01;69.88;97894.86;1773988;81;21374;-72
2021/03/13 00:03:46;;;;;;;10.43;9.30;;;;;;;3.05;69.64;97900.42;1773790;81;20989;-71
2021/03/13 00:06:13;;;;;;;9.40;8.40;;;;;;;3.10;69.33;97891.77;1773944;81;20988;-71
2021/03/13 00:08:41;;;;;;;9.75;8.48;;;;;;;3.13;69.19;97894.28;1773952;81;21465;-71
2021/03/13 00:11:13;;;;;;;9.65;8.45;;;;;;;3.19;69.20;97890.02;1774010;81;20897;-72
2021/03/13 00:13:41;;;;;;;10.03;8.18;;;;;;;3.23;69.10;97888.95;1773924;81;21420;-72
2021/03/13 00:16:12;;;;;;;10.63;9.53;;;;;;;3.27;69.07;97888.80;1773883;81;21016;-71
2021/03/13 00:18:40;;;;;;;9.60;8.53;;;;;;;3.28;69.20;97882.53;1773977;81;20909;-71
2021/03/13 00:21:09;;;;;;;10.35;8.40;;;;;;;3.29;69.09;97876.30;1773896;79;20921;-72
2021/03/13 00:23:36;;;;;;;10.13;8.90;;;;;;;3.31;69.04;97878.41;1773801;81;20957;-71
2021/03/13 00:26:04;;;;;;;9.85;8.85;;;;;;;3.31;68.95;97877.08;1773956;79;21384;-73
2021/03/13 00:28:32;;;;;;;11.33;9.70;;;;;;;3.31;68.95;97885.05;1773920;81;21024;-71
2021/03/13 00:31:02;;;;;;;10.15;9.13;;;;;;;3.30;69.04;97882.02;1773961;81;20921;-72
2021/03/13 15:32:42;;;;;;;5.20;4.50;;;;;;;8.63;51.89;97549.51;1707108;79;20969;-78
2021/03/13 15:35:21;;;;;;;5.28;4.55;;;;;;;8.59;52.33;97542.70;1680023;84;21052;-79
2021/03/13 15:37:52;;;;;;;5.28;4.70;;;;;;;8.61;52.42;97538.56;1701967;84;21092;-82
2021/03/13 15:40:23;;;;;;;4.80;4.35;;;;;;;8.60;52.44;97536.35;1701805;84;21080;-80
2021/03/13 15:42:53;;;;;;;4.92;3.85;;;;;;;8.61;52.58;97526.52;1702313;84;21048;-81
2021/03/13 15:45:23;;;;;;;7.58;5.33;;;;;;;8.61;52.63;97534.05;1694284;83;21373;-80
2021/03/13 15:47:53;;;;;;;5.10;4.60;;;;;;;8.61;52.35;97530.05;1698101;84;21042;-81
2021/03/13 15:50:24;;;;;;;4.20;3.75;;;;;;;8.63;52.57;97528.09;1694541;84;21009;-79
2021/03/13 15:52:54;;;;;;;5.92;5.05;;;;;;;8.65;52.52;97531.50;1694543;84;21005;-79
2021/03/13 15:55:24;;;;;;;5.40;4.75;;;;;;;8.65;52.23;97530.16;1694557;84;21025;-81
2021/03/13 15:57:52;;;;;;;8.15;5.62;;;;;;;8.67;52.18;97530.92;1694632;84;22256;-80
2021/03/13 16:00:21;;;;;;;5.83;4.45;;;;;;;8.68;52.26;97535.78;1694611;84;20930;-79
2021/03/13 16:02:59;;;;;;;4.28;3.77;;;;;;;8.67;52.14;97526.91;1688611;84;20949;-80
2021/03/13 16:05:30;;;;;;;5.60;4.17;;;;;;;8.66;52.47;97528.36;1694555;84;20953;-79
2021/03/13 16:07:59;;;;;;;6.20;4.33;;;;;;;8.62;52.25;97515.67;1694619;84;20942;-79
2021/03/13 16:10:31;;;;;;;4.62;4.10;;;;;;;8.61;52.17;97515.32;1674978;84;20947;-80
2021/03/13 16:13:00;;;;;;;6.03;5.40;;;;;;;8.59;52.22;97521.28;1694497;84;20961;-79
2021/03/13 16:15:28;;;;;;;5.53;5.00;;;;;;;8.58;52.32;97524.92;1694522;84;21375;-77
2021/03/13 16:17:56;;;;;;;4.50;4.03;;;;;;;8.56;52.21;97517.96;1694474;84;20953;-80
2021/03/13 16:20:27;;;;;;;5.28;4.70;;;;;;;8.54;52.10;97510.05;1693791;84;20902;-80
2021/03/13 16:22:55;;;;;;;4.92;4.30;;;;;;;8.52;52.24;97510.66;1694477;84;21147;-80
2021/03/13 16:25:25;;;;;;;6.50;5.15;;;;;;;8.51;52.21;97512.95;1675190;84;21021;-80
2021/03/13 16:27:58;;;;;;;6.90;5.03;;;;;;;8.48;52.03;97513.18;1694577;84;21573;-80
2021/03/13 16:30:26;;;;;;;5.45;4.95;;;;;;;8.46;52.15;97505.27;1694566;84;21407;-78
2021/03/13 16:32:57;;;;;;;6.08;4.22;;;;;;;8.44;52.19;97509.89;1694509;83;20953;-80
2021/03/13 16:35:27;;;;;;;3.75;3.12;;;;;;;8.39;52.59;97499.99;1694486;84;21378;-81
2021/03/13 16:37:58;;;;;;;5.92;3.75;;;;;;;8.37;52.03;97501.06;1694611;84;20961;-80
2021/03/13 16:40:27;;;;;;;4.30;3.65;;;;;;;8.36;52.35;97508.74;1694495;84;20950;-80
2021/03/13 16:43:01;;;;;;;5.07;3.40;;;;;;;8.33;52.52;97501.29;1694910;84;20961;-79
2021/03/13 16:45:32;;;;;;;6.42;4.28;;;;;;;8.30;53.13;97504.69;1696683;84;20938;-81
2021/03/13 16:47:59;;;;;;;3.98;3.58;;;;;;;8.27;53.95;97504.42;1694620;84;22045;-79
2021/03/13 16:50:31;;;;;;;7.05;4.90;;;;;;;8.23;53.96;97504.30;1694469;84;20969;-78
2021/03/13 16:53:01;;;;;;;5.87;4.17;;;;;;;8.20;54.38;97500.97;1674661;84;20957;-81
2021/03/13 16:55:30;;;;;;;8.65;4.72;;;;;;;8.17;54.62;97503.88;1694147;84;21066;-79
2021/03/13 16:57:59;;;;;;;6.05;4.60;;;;;;;8.12;54.95;97500.23;1694560;84;21355;-81
2021/03/13 17:00:30;;;;;;;4.58;3.90;;;;;;;8.07;55.04;97503.70;1694578;84;21264;-80
2021/03/13 17:03:01;;;;;;;6.65;4.90;;;;;;;8.04;55.37;97509.28;1694484;84;20961;-79
2021/03/13 17:05:32;;;;;;;5.87;4.65;;;;;;;7.98;55.54;97511.94;1694468;84;20958;-78
2021/03/13 17:08:02;;;;;;;4.87;4.03;;;;;;;7.94;55.77;97507.27;1673985;84;21064;-80
2021/03/13 17:10:34;;;;;;;6.70;4.87;;;;;;;7.92;56.13;97511.89;1675011;84;21029;-79
2021/03/13 17:13:05;;;;;;;5.72;4.62;;;;;;;7.89;56.26;97517.95;1694290;84;22602;-79
2021/03/13 17:15:37;;;;;;;6.00;5.20;;;;;;;7.87;56.22;97516.72;1675443;84;21004;-78
2021/03/13 17:18:05;;;;;;;4.62;4.17;;;;;;;7.83;56.59;97520.57;1694590;84;21489;-79
2021/03/13 17:20:37;;;;;;;5.22;4.72;;;;;;;7.80;56.89;97518.61;1694502;84;21018;-81
2021/03/13 17:23:05;;;;;;;6.22;4.83;;;;;;;7.75;57.15;97525.63;1694819;84;21005;-81
2021/03/13 17:25:36;;;;;;;5.92;4.67;;;;;;;7.70;57.52;97534.46;1694560;83;21659;-79
2021/03/13 17:28:07;;;;;;;7.65;5.58;;;;;;;7.66;57.71;97539.64;1694358;84;21615;-80
2021/03/13 17:30:34;;;;;;;5.53;5.00;;;;;;;7.65;57.72;97533.94;1674651;84;21461;-78
2021/03/13 17:33:07;;;;;;;5.40;4.80;;;;;;;7.63;58.02;97537.19;1675908;84;20961;-82
2021/03/13 17:35:43;;;;;;;5.25;4.67;;;;;;;7.58;58.56;97527.70;1702256;84;20953;-81
2021/03/13 17:38:13;;;;;;;6.35;4.92;;;;;;;7.55;58.65;97522.57;1702202;84;21431;-79
2021/03/13 17:40:49;;;;;;;7.83;5.40;;;;;;;7.55;58.66;97522.57;1701334;84;20981;-79
2021/03/13 17:43:21;;;;;;;7.37;5.50;;;;;;;7.54;58.71;97519.52;1701926;84;20969;-78
2021/03/13 17:45:53;;;;;;;6.67;4.70;;;;;;;7.52;59.05;97524.13;1702173;84;21639;-80
2021/03/13 17:48:22;;;;;;;6.72;5.05;;;;;;;7.51;59.10;97523.73;1702316;84;21004;-80
2021/03/13 17:50:54;;;;;;;8.10;5.10;;;;;;;7.50;59.36;97515.83;1702221;84;22654;-81
2021/03/13 17:53:24;;;;;;;5.10;4.47;;;;;;;7.49;59.20;97518.99;1702300;84;21542;-79
2021/03/13 17:55:53;;;;;;;5.10;4.50;;;;;;;7.48;59.23;97519.95;1702310;84;21489;-79
2021/03/13 17:58:22;;;;;;;6.70;4.60;;;;;;;7.49;59.11;97517.66;1702526;84;21044;-78
2021/03/13 18:00:56;;;;;;;4.80;4.33;;;;;;;7.51;59.00;97502.36;1703106;84;21072;-80
2021/03/13 18:03:27;;;;;;;5.65;4.80;;;;;;;7.51;58.90;97499.69;1702161;84;21367;-81
2021/03/13 18:06:00;;;;;;;5.83;4.10;;;;;;;7.53;58.97;97503.09;1702265;84;20964;-80
2021/03/13 18:08:31;;;;;;;9.53;4.87;;;;;;;7.55;59.07;97502.98;1703226;84;21390;-79
2021/03/13 18:11:04;;;;;;;4.40;4.00;;;;;;;7.56;58.95;97502.88;1702975;84;21028;-79
2021/03/13 18:13:33;;;;;;;4.85;4.35;;;;;;;7.59;58.72;97493.80;1702622;84;21414;-81
2021/03/13 18:16:06;;;;;;;6.65;4.22;;;;;;;7.60;58.62;97488.34;1703141;84;21403;-79
2021/03/13 18:18:45;;;;;;;4.45;2.92;;;;;;;7.64;58.25;97484.96;1702238;84;20957;-80
2021/03/13 18:21:16;;;;;;;7.20;3.92;;;;;;;7.67;58.32;97483.90;1702231;84;21012;-82
2021/03/13 18:23:45;;;;;;;4.78;3.77;;;;;;;7.70;57.91;97490.36;1702213;84;21021;-80
2021/03/13 18:26:12;;;;;;;4.17;3.77;;;;;;;7.71;57.78;97484.03;1702163;84;21480;-81
2021/03/13 18:28:42;;;;;;;4.37;3.30;;;;;;;7.72;57.61;97477.73;1702224;84;21377;-81
2021/03/13 18:31:11;;;;;;;6.75;4.00;;;;;;;7.71;57.69;97482.69;1702222;84;20977;-80
2021/03/13 18:33:42;;;;;;;6.12;3.83;;;;;;;7.69;57.51;97477.95;1699403;84;20953;-79
2021/03/13 18:36:16;;;;;;;6.17;3.55;;;;;;;7.68;57.60;97469.09;1694058;84;21581;-79
2021/03/13 18:38:45;;;;;;;5.45;3.92;;;;;;;7.68;57.65;97475.77;1694489;84;20969;-79
2021/03/13 18:41:16;;;;;;;3.70;2.80;;;;;;;7.67;57.78;97479.89;1694579;84;21309;-78
2021/03/13 18:43:46;;;;;;;3.20;2.90;;;;;;;7.66;57.61;97470.99;1693286;84;21020;-80
2021/03/13 18:46:15;;;;;;;4.90;3.83;;;;;;;7.65;57.57;97471.98;1694326;84;21533;-79
2021/03/13 18:48:45;;;;;;;3.90;3.25;;;;;;;7.65;57.74;97464.45;1694389;84;21045;-79
2021/03/13 18:51:13;;;;;;;5.08;3.45;;;;;;;7.66;57.61;97460.80;1694489;84;21009;-78
2021/03/13 18:53:46;;;;;;;4.90;3.37;;;;;;;7.66;57.45;97462.13;1693508;84;21458;-79
2021/03/13 18:56:18;;;;;;;4.72;3.00;;;;;;;7.67;57.78;97467.86;1674568;84;21397;-76
2021/03/13 18:58:50;;;;;;;3.37;2.52;;;;;;;7.67;57.50;97462.52;1694545;84;21375;-78
2021/03/13 19:01:19;;;;;;;3.20;2.85;;;;;;;7.70;57.70;97461.80;1694362;84;20974;-79
2021/03/13 19:03:50;;;;;;;4.17;3.10;;;;;;;7.71;57.21;97458.64;1691814;84;20926;-79
2021/03/13 19:06:22;;;;;;;2.98;2.40;;;;;;;7.74;57.46;97454.41;1694509;84;21154;-78
2021/03/13 19:08:54;;;;;;;4.40;3.27;;;;;;;7.73;57.28;97446.03;1694512;84;21438;-79
2021/03/13 19:11:25;;;;;;;3.33;3.02;;;;;;;7.73;57.19;97430.00;1694621;84;21041;-78
2021/03/13 19:13:55;;;;;;;5.42;3.08;;;;;;;7.75;57.02;97426.72;1693486;84;21009;-78
2021/03/13 19:16:26;;;;;;;5.37;2.90;;;;;;;7.80;57.01;97445.09;1694512;84;21000;-78
2021/03/13 19:18:56;;;;;;;6.22;2.40;;;;;;;7.80;56.94;97427.23;1694595;84;21418;-78
2021/03/13 19:21:25;;;;;;;3.52;2.30;;;;;;;7.82;56.75;97409.28;1674598;84;21037;-79
2021/03/13 19:23:56;;;;;;;7.33;2.05;;;;;;;7.86;56.58;97409.89;1693872;84;21017;-78
2021/03/13 19:26:41;;;;;;;4.67;2.65;;;;;;;7.90;56.47;97408.22;1694270;84;20966;-78
2021/03/13 19:29:10;;;;;;;3.98;2.42;;;;;;;7.95;56.40;97418.08;1694539;84;20957;-82
2021/03/13 19:31:39;;;;;;;3.72;2.20;;;;;;;7.99;56.24;97421.86;1695903;84;21376;-77
2021/03/13 19:34:08;;;;;;;5.03;2.42;;;;;;;8.02;56.22;97417.63;1695583;83;20957;-78
2021/03/13 19:36:38;;;;;;;4.35;2.83;;;;;;;8.04;56.09;97409.86;1695793;84;20906;-76
2021/03/13 19:39:05;;;;;;;3.10;2.27;;;;;;;8.08;55.78;97426.53;1695736;84;21001;-77
2021/03/13 19:41:36;;;;;;;4.97;2.33;;;;;;;8.10;55.90;97420.57;1695915;83;20989;-75
2021/03/13 19:44:08;;;;;;;8.68;2.40;;;;;;;8.13;55.73;97406.97;1695648;84;22739;-77
2021/03/13 19:46:37;;;;;;;2.98;2.10;;;;;;;8.17;55.41;97425.84;1692132;84;21021;-79
2021/03/13 19:49:06;;;;;;;2.95;2.30;;;;;;;8.20;55.81;97410.90;1694597;84;21020;-77
2021/03/13 19:51:35;;;;;;;4.55;2.52;;;;;;;8.22;55.55;97407.62;1694595;84;21029;-79
2021/03/13 19:54:05;;;;;;;3.55;2.00;;;;;;;8.24;55.34;97402.99;1694617;84;21009;-77
2021/03/13 19:56:34;;;;;;;2.40;2.05;;;;;;;8.26;55.36;97411.78;1694523;84;21828;-79
2021/03/13 19:59:03;;;;;;;4.55;2.72;;;;;;;8.30;55.19;97403.87;1694538;84;21375;-80
2021/03/13 20:01:31;;;;;;;6.72;3.00;;;;;;;8.34;55.14;97407.19;1694566;84;21355;-77
2021/03/13 20:04:00;;;;;;;3.90;2.50;;;;;;;8.36;54.92;97411.08;1694487;84;20949;-78
2021/03/13 20:06:27;;;;;;;2.50;2.25;;;;;;;8.38;55.00;97407.80;1674585;84;21394;-79
2021/03/13 20:08:56;;;;;;;6.10;2.20;;;;;;;8.40;55.00;97408.02;1694562;84;22212;-79
2021/03/13 20:11:27;;;;;;;3.02;2.33;;;;;;;8.43;54.91;97398.45;1694707;84;21470;-78
2021/03/13 20:13:59;;;;;;;4.20;2.45;;;;;;;8.46;55.07;97406.75;1694605;84;21008;-77
2021/03/13 20:16:29;;;;;;;2.92;2.40;;;;;;;8.46;54.95;97400.05;1694704;84;20906;-77
2021/03/13 20:19:00;;;;;;;3.30;2.27;;;;;;;8.46;54.97;97390.20;1694516;84;20973;-78
2021/03/13 20:21:34;;;;;;;3.47;2.50;;;;;;;8.47;54.81;97391.91;1694648;83;21219;-77
2021/03/13 20:24:02;;;;;;;4.37;2.55;;;;;;;8.48;54.84;97388.73;1694560;84;20977;-78
2021/03/13 20:26:30;;;;;;;3.98;2.37;;;;;;;8.47;54.54;97380.37;1694423;84;21434;-76
2021/03/13 20:28:59;;;;;;;3.67;2.60;;;;;;;8.48;54.59;97364.66;1694420;84;20957;-78
2021/03/13 20:31:26;;;;;;;7.15;3.20;;;;;;;8.47;54.66;97381.70;1694629;84;21443;-76
2021/03/13 20:33:58;;;;;;;3.83;2.42;;;;;;;8.47;54.35;97376.35;1695732;83;21422;-77
2021/03/13 20:36:25;;;;;;;3.95;2.58;;;;;;;8.46;54.60;97402.23;1674812;84;21020;-78
2021/03/13 20:38:54;;;;;;;5.80;2.80;;;;;;;8.49;54.47;97393.98;1702275;84;21422;-77
2021/03/13 20:41:26;;;;;;;7.33;3.15;;;;;;;8.50;54.33;97396.19;1702266;84;21012;-79
2021/03/13 20:43:54;;;;;;;5.53;2.50;;;;;;;8.50;54.41;97382.81;1702235;84;20993;-78
2021/03/13 20:46:21;;;;;;;4.72;2.50;;;;;;;8.52;54.46;97396.91;1674373;84;21176;-79
2021/03/13 20:48:49;;;;;;;3.35;2.40;;;;;;;8.51;54.44;97395.20;1702844;84;20965;-78
2021/03/13 20:51:17;;;;;;;4.58;2.50;;;;;;;8.50;54.74;97404.22;1702453;84;21012;-75
2021/03/13 20:53:45;;;;;;;3.40;2.83;;;;;;;8.50;54.89;97393.52;1702167;84;20988;-78
2021/03/13 20:56:16;;;;;;;4.03;2.70;;;;;;;8.51;54.78;97419.28;1702229;84;21012;-79
2021/03/13 20:58:44;;;;;;;4.03;2.10;;;;;;;8.49;54.77;97410.53;1702292;84;22275;-78
2021/03/13 21:01:12;;;;;;;2.75;2.35;;;;;;;8.48;55.04;97416.84;1702642;84;21048;-76
2021/03/13 21:03:41;;;;;;;3.50;2.45;;;;;;;8.50;55.20;97410.91;1703001;84;20960;-77
2021/03/13 21:06:10;;;;;;;3.83;2.70;;;;;;;8.49;54.85;97418.56;1700503;84;20941;-77
2021/03/13 21:08:37;;;;;;;2.12;1.92;;;;;;;8.48;55.09;97402.13;1702792;84;21409;-78
2021/03/13 21:11:06;;;;;;;3.55;2.58;;;;;;;8.48;55.21;97425.74;1703098;84;21445;-78
2021/03/13 21:13:36;;;;;;;4.05;2.72;;;;;;;8.48;55.17;97416.84;1702337;84;21049;-76
2021/03/13 21:16:05;;;;;;;3.42;2.60;;;;;;;8.48;55.44;97420.39;1702569;84;20973;-78
2021/03/13 21:18:34;;;;;;;3.92;2.90;;;;;;;8.45;55.42;97418.41;1702915;84;20997;-78
2021/03/13 21:21:02;;;;;;;5.60;2.83;;;;;;;8.41;55.45;97412.42;1702375;84;21036;-78
2021/03/13 21:23:33;;;;;;;2.52;2.15;;;;;;;8.43;55.55;97428.36;1702369;84;21342;-78
2021/03/13 21:26:03;;;;;;;2.85;2.40;;;;;;;8.43;55.44;97421.66;1702244;84;20917;-76
2021/03/13 21:28:31;;;;;;;5.50;2.95;;;;;;;8.41;55.53;97412.91;1702196;84;20945;-74
2021/03/13 21:31:01;;;;;;;2.62;2.40;;;;;;;8.41;55.51;97407.56;1702228;84;20965;-76
2021/03/13 21:33:35;;;;;;;2.55;2.30;;;;;;;8.43;55.75;97421.66;1702488;84;21569;-76
2021/03/13 21:36:05;;;;;;;3.10;2.62;;;;;;;8.41;55.85;97420.94;1702049;84;21831;-77
2021/03/13 21:38:34;;;;;;;5.30;2.70;;;;;;;8.41;55.67;97410.23;1702126;84;21056;-77
2021/03/13 21:41:02;;;;;;;4.25;3.10;;;;;;;8.40;55.64;97409.36;1702250;84;21043;-76
2021/03/13 21:43:38;;;;;;;4.42;2.33;;;;;;;8.37;55.72;97401.60;1674533;84;20972;-77
2021/03/13 21:46:07;;;;;;;3.72;2.83;;;;;;;8.36;55.80;97385.66;1700994;84;20996;-77
2021/03/13 21:48:35;;;;;;;4.35;2.45;;;;;;;8.35;55.98;97370.57;1702214;84;21208;-75
2021/03/13 21:51:03;;;;;;;4.50;3.50;;;;;;;8.32;56.05;97375.19;1702188;84;20956;-76
2021/03/13 21:53:33;;;;;;;3.98;2.87;;;;;;;8.32;56.34;97377.88;1702313;84;21036;-76
2021/03/13 21:56:05;;;;;;;3.20;2.62;;;;;;;8.31;56.23;97378.83;1675229;84;21055;-76
2021/03/13 21:58:36;;;;;;;5.05;2.90;;;;;;;8.28;56.30;97373.71;1702246;84;20993;-76
2021/03/13 22:01:04;;;;;;;3.47;2.87;;;;;;;8.27;56.40;97377.34;1702276;84;21211;-77
2021/03/13 22:03:34;;;;;;;2.90;2.55;;;;;;;8.24;56.51;97369.55;1702278;84;21501;-78
2021/03/13 22:06:05;;;;;;;4.58;2.60;;;;;;;8.22;56.33;97370.16;1702271;84;21505;-77
2021/03/13 22:08:33;;;;;;;4.97;3.40;;;;;;;8.21;56.50;97355.07;1702268;84;21115;-75
2021/03/13 22:11:01;;;;;;;4.90;2.95;;;;;;;8.18;56.28;97345.95;1674449;84;20930;-74
2021/03/13 22:13:30;;;;;;;3.52;2.62;;;;;;;8.21;56.43;97367.61;1702240;84;21031;-75
2021/03/13 22:15:57;;;;;;;4.17;2.80;;;;;;;8.21;56.67;97372.46;1702137;84;21008;-76
2021/03/13 22:18:26;;;;;;;4.40;2.83;;;;;;;8.21;56.23;97373.80;1702292;84;21012;-77
2021/03/13 22:20:54;;;;;;;3.37;3.08;;;;;;;8.20;56.33;97363.22;1702256;84;21478;-77
2021/03/13 22:23:22;;;;;;;3.65;2.50;;;;;;;8.19;56.19;97369.06;1702229;84;20913;-77
2021/03/13 22:25:49;;;;;;;3.27;2.60;;;;;;;8.17;56.10;97354.95;1702199;84;21828;-75
2021/03/13 22:28:17;;;;;;;4.17;2.62;;;;;;;8.17;55.95;97363.45;1702127;84;20914;-76
2021/03/13 22:30:44;;;;;;;4.97;2.90;;;;;;;8.18;55.98;97359.81;1702157;84;21005;-76
2021/03/13 22:33:12;;;;;;;3.08;2.77;;;;;;;8.17;55.80;97360.31;1702181;84;20946;-75
2021/03/13 22:35:43;;;;;;;4.35;2.50;;;;;;;8.16;55.63;97362.61;1702019;84;21044;-75
2021/03/13 22:38:11;;;;;;;4.15;2.58;;;;;;;8.16;55.62;97347.05;1702209;84;21818;-74
2021/03/13 22:40:43;;;;;;;2.67;2.40;;;;;;;8.16;55.40;97322.98;1700449;84;21374;-74
2021/03/13 22:43:13;;;;;;;3.35;3.05;;;;;;;8.13;55.18;97332.08;1702279;84;20945;-73
2021/03/13 22:45:42;;;;;;;2.65;2.17;;;;;;;8.12;55.12;97330.39;1702324;84;20949;-74
2021/03/13 22:48:09;;;;;;;5.58;2.02;;;;;;;8.12;54.95;97321.03;1702341;84;20941;-75
2021/03/13 22:50:40;;;;;;;3.27;2.45;;;;;;;8.10;54.58;97307.78;1702381;84;21282;-74
2021/03/13 22:53:08;;;;;;;3.37;2.27;;;;;;;8.11;54.51;97319.32;1702377;84;21208;-75
2021/03/13 22:55:37;;;;;;;2.50;2.25;;;;;;;8.11;54.57;97300.10;1702346;84;20977;-75
2021/03/13 22:58:07;;;;;;;2.30;1.72;;;;;;;8.11;54.23;97306.79;1702281;84;21030;-76
2021/03/13 23:00:42;;;;;;;4.25;2.22;;;;;;;8.11;53.97;97297.92;1702333;84;21028;-73
2021/03/13 23:03:12;;;;;;;3.90;2.15;;;;;;;8.12;54.01;97294.29;1702357;84;21347;-76
2021/03/13 23:05:40;;;;;;;2.60;2.40;;;;;;;8.12;54.08;97293.80;1702275;84;20972;-74
2021/03/13 23:08:09;;;;;;;4.60;2.40;;;;;;;8.13;54.11;97281.27;1702291;84;20941;-74
2021/03/13 23:10:41;;;;;;;2.52;2.15;;;;;;;8.12;54.17;97271.55;1702268;84;20949;-75
2021/03/13 23:13:09;;;;;;;2.20;2.00;;;;;;;8.11;54.41;97273.85;1702357;84;20945;-75
2021/03/13 23:15:37;;;;;;;4.35;2.27;;;;;;;8.10;54.47;97273.48;1702308;84;21207;-75
2021/03/13 23:18:08;;;;;;;3.83;1.80;;;;;;;8.10;54.34;97260.10;1702273;84;21442;-75
2021/03/13 23:20:38;;;;;;;3.92;2.30;;;;;;;8.11;54.14;97267.16;1702313;84;21445;-74
2021/03/13 23:23:06;;;;;;;2.47;1.70;;;;;;;8.07;53.90;97256.33;1702386;84;21482;-75
2021/03/13 23:25:39;;;;;;;2.52;2.30;;;;;;;8.08;53.97;97256.70;1702429;84;21390;-76
2021/03/13 23:28:07;;;;;;;4.45;2.47;;;;;;;8.07;54.14;97259.00;1702366;84;21384;-75
2021/03/13 23:30:41;;;;;;;3.92;1.92;;;;;;;8.07;53.97;97250.98;1702349;84;21395;-74
2021/03/13 23:33:12;;;;;;;2.17;1.77;;;;;;;8.08;54.09;97237.48;1702177;84;20948;-74
2021/03/13 23:35:54;;;;;;;2.90;2.02;;;;;;;8.05;53.87;97238.22;1707948;83;20944;-75
2021/03/13 23:38:33;;;;;;;2.10;1.90;;;;;;;8.04;53.98;97241.86;1715563;83;21000;-76
2021/03/13 23:41:03;;;;;;;2.45;2.20;;;;;;;8.05;54.08;97248.92;1715603;83;22527;-74
2021/03/13 23:43:36;;;;;;;3.40;1.72;;;;;;;8.02;54.04;97240.64;1715473;83;20972;-76
2021/03/13 23:46:04;;;;;;;2.87;2.27;;;;;;;8.03;54.24;97256.22;1715464;83;21067;-75
2021/03/13 23:48:36;;;;;;;2.80;2.35;;;;;;;8.02;54.29;97239.80;1715561;83;21043;-76
2021/03/13 23:51:04;;;;;;;3.70;2.50;;;;;;;8.02;54.21;97261.19;1715469;83;21028;-75
2021/03/13 23:53:36;;;;;;;3.77;2.05;;;;;;;8.01;54.44;97236.28;1667740;83;21014;-75
2021/03/13 23:56:06;;;;;;;3.65;2.50;;;;;;;8.00;54.28;97222.53;1715434;83;21445;-74
2021/03/13 23:58:37;;;;;;;3.60;2.02;;;;;;;8.00;54.50;97231.05;1715501;83;21469;-75
